»·PEaware :: N145ML KOXR-KSAN

N145ML :: KOXR-KSAN

FLIGHT INFORMATION

Flight Status: Arrived
Operator: Privately registered:
United States
More flights under this callsign
Pilot: Mitchell L. (19304)
Aircraft: Unknown
(SF50)
More flights by this aircraft type
Origin: KOXR Oxnard
United States
Destination: KSAN San Diego Intl-Lindbergh
United States
More flights between these airports :: More routes between these airports
Route: +VTU V27 SXC V208 LAX118 CARDI MZB320 MZB
File this flight plan on PilotEdge
Remarks:
Altitude:
(Current/Filed)
15,000ft
Speed:
(Current/Filed)
225kts
Departed: 28-Jul-18 08:23 PM
Arrived: 28-Jul-18 09:14 PM
Distance/Time
Traveled:
134nm/0:51
Distance/Time
To Go:
Arrived

Flight Plot

Page will automatically refresh every two minutes.

Flight plan parsing failed; only flown route is shown


Map Options




Map Legend


Flown Route
Filed Route
Departure Airport
Arrival Airport
Navaid (VOR, NDB)
Fix

Horizontal Profiles

Position Reports

Time Latitude Longitude Heading Altitude Ground
Speed
28-Jul-18 19:57 34.199370 -119.212932 348 46ft 0kts
28-Jul-18 19:58 34.199370 -119.212932 348 46ft 0kts
28-Jul-18 19:59 34.199370 -119.212932 348 46ft 0kts
28-Jul-18 20:00 34.199370 -119.212932 348 46ft 0kts
28-Jul-18 20:01 34.199370 -119.212932 348 46ft 0kts
28-Jul-18 20:02 34.199370 -119.212932 348 46ft 0kts
28-Jul-18 20:03 34.199370 -119.212932 348 46ft 0kts
28-Jul-18 20:04 34.199370 -119.212932 348 46ft 0kts
28-Jul-18 20:05 34.199370 -119.212932 348 46ft 0kts
28-Jul-18 20:06 34.199370 -119.212932 348 46ft 0kts
28-Jul-18 20:07 34.199370 -119.212932 348 46ft 0kts
28-Jul-18 20:08 34.199370 -119.212932 348 46ft 0kts
28-Jul-18 20:09 34.199370 -119.212932 348 46ft 0kts
28-Jul-18 20:10 34.199370 -119.212932 348 46ft 0kts
28-Jul-18 20:11 34.199370 -119.212932 348 46ft 0kts
28-Jul-18 20:12 34.199370 -119.212932 348 46ft 0kts
28-Jul-18 20:13 34.199559 -119.212208 91 46ft 5kts
28-Jul-18 20:14 34.199546 -119.209107 88 46ft 12kts
28-Jul-18 20:15 34.199107 -119.206436 94 46ft 0kts
28-Jul-18 20:16 34.199107 -119.206436 94 46ft 0kts
28-Jul-18 20:17 34.199107 -119.206436 94 46ft 0kts
28-Jul-18 20:18 34.199107 -119.206436 94 46ft 0kts
28-Jul-18 20:19 34.199107 -119.206436 94 46ft 0kts
28-Jul-18 20:20 34.199107 -119.206436 94 46ft 0kts
28-Jul-18 20:21 34.199194 -119.206244 33 46ft 5kts
28-Jul-18 20:22 34.199750 -119.201402 88 46ft 22kts
28-Jul-18 20:23 34.199982 -119.197508 5 46ft 0kts
28-Jul-18 20:24 34.200761 -119.200751 270 46ft 51kts
28-Jul-18 20:25 34.199288 -119.230102 267 1092ft 103kts
28-Jul-18 20:26 34.197204 -119.267319 267 2580ft 137kts
28-Jul-18 20:27 34.193539 -119.311662 245 3489ft 167kts
28-Jul-18 20:28 34.157553 -119.304911 142 4984ft 163kts
28-Jul-18 20:29 34.125827 -119.274981 142 6721ft 178kts
28-Jul-18 20:30 34.092838 -119.244296 142 7726ft 186kts
28-Jul-18 20:31 34.054283 -119.208642 142 8002ft 218kts
28-Jul-18 20:32 34.017640 -119.158152 137 7976ft 239kts
28-Jul-18 20:33 33.972360 -119.104993 135 7993ft 246kts
28-Jul-18 20:34 33.923861 -119.048825 135 7992ft 248kts
28-Jul-18 20:35 33.878794 -118.996699 136 7989ft 249kts
28-Jul-18 20:36 33.837025 -118.948489 136 7948ft 250kts
28-Jul-18 20:37 33.796601 -118.901916 137 9232ft 248kts
28-Jul-18 20:38 33.754478 -118.853445 137 10956ft 233kts
28-Jul-18 20:39 33.710095 -118.802437 137 12858ft 221kts
28-Jul-18 20:40 33.662256 -118.747587 137 12970ft 257kts
28-Jul-18 20:41 33.619647 -118.698767 137 12982ft 258kts
28-Jul-18 20:42 33.573223 -118.645662 137 12991ft 258kts
28-Jul-18 20:43 33.523399 -118.588762 137 12991ft 259kts
28-Jul-18 20:44 33.473615 -118.532001 137 12990ft 259kts
28-Jul-18 20:45 33.423452 -118.474905 137 12991ft 259kts
28-Jul-18 20:46 33.381266 -118.426432 130 12975ft 261kts
28-Jul-18 20:47 33.367290 -118.357835 100 12996ft 263kts
28-Jul-18 20:48 33.361514 -118.315417 100 12990ft 263kts
28-Jul-18 20:49 33.351235 -118.237552 100 12983ft 263kts
28-Jul-18 20:50 33.341837 -118.166235 100 12977ft 263kts
28-Jul-18 20:51 33.332007 -118.091959 100 12974ft 263kts
28-Jul-18 20:52 33.321962 -118.016413 100 13015ft 263kts
28-Jul-18 20:53 33.309121 -117.920371 100 13007ft 263kts
28-Jul-18 20:54 33.299640 -117.849821 100 13000ft 263kts
28-Jul-18 20:55 33.288616 -117.768157 100 12999ft 263kts
28-Jul-18 20:56 33.264046 -117.700071 120 12995ft 261kts
28-Jul-18 20:57 33.233779 -117.633891 119 12999ft 261kts
28-Jul-18 20:58 33.204854 -117.570687 119 12975ft 252kts
28-Jul-18 20:59 33.178369 -117.512897 120 12979ft 222kts
28-Jul-18 21:00 33.152351 -117.456255 120 12984ft 218kts
28-Jul-18 21:01 33.111816 -117.408293 154 12573ft 210kts
28-Jul-18 21:02 33.061502 -117.380205 154 11612ft 206kts
28-Jul-18 21:03 33.011403 -117.352346 153 10337ft 206kts
28-Jul-18 21:04 32.961450 -117.324591 154 9012ft 207kts
28-Jul-18 21:05 32.909677 -117.295896 154 7743ft 205kts
28-Jul-18 21:06 32.861776 -117.269380 155 6964ft 184kts
28-Jul-18 21:07 32.821920 -117.246432 132 6967ft 138kts
28-Jul-18 21:08 32.811693 -117.202134 101 6977ft 150kts
28-Jul-18 21:09 32.801913 -117.149124 101 5910ft 170kts
28-Jul-18 21:10 32.789276 -117.102575 152 4961ft 134kts
28-Jul-18 21:11 32.753270 -117.108128 195 3946ft 146kts
28-Jul-18 21:12 32.716753 -117.123841 254 2032ft 138kts
28-Jul-18 21:13 32.725468 -117.155090 283 782ft 78kts
28-Jul-18 21:14 32.729940 -117.174666 288 22ft 49kts
28-Jul-18 21:15 32.731662 -117.181784 285 21ft 3kts
28-Jul-18 21:16 32.731676 -117.181843 285 21ft 0kts
28-Jul-18 21:17 32.731676 -117.181843 285 21ft 0kts
28-Jul-18 21:18 32.731957 -117.182026 16 21ft 3kts

Navigation Log

Ident Type
Flight plan parsing failed, navigation log unavailable